Time;durP1;ratioP1;P1;durP2;ratioP2;P2;SDS_P1;SDS_P2;PMS_P1;PMS_P2;Temp;Humidity;BMP_temperature;BMP_pressure;BME280_temperature;BME280_humidity;BME280_pressure;Samples;Min_cycle;Max_cycle;Signal;HPM_P1;HPM_P2
2021/05/10 00:01:34;;;;;;;2.53;1.83;;;14.10;99.90;;;;;;4894296;29;20484;-76
2021/05/10 00:04:02;;;;;;;2.85;1.85;;;14.00;99.90;;;;;;4895391;29;20127;-76
2021/05/10 00:06:28;;;;;;;3.10;2.08;;;14.00;99.90;;;;;;4894250;29;20139;-76
2021/05/10 00:08:56;;;;;;;3.17;1.85;;;14.00;99.90;;;;;;4895541;29;20475;-76
2021/05/10 00:11:28;;;;;;;3.63;2.30;;;14.00;99.90;;;;;;4893977;29;20048;-76
2021/05/10 00:13:55;;;;;;;3.67;1.80;;;14.00;99.90;;;;;;4894119;29;20056;-78
2021/05/10 00:16:26;;;;;;;2.75;2.10;;;13.90;99.90;;;;;;4895507;29;20127;-77
2021/05/10 00:18:53;;;;;;;2.05;1.42;;;13.90;99.90;;;;;;4894058;29;20135;-76
2021/05/10 00:21:19;;;;;;;2.28;1.80;;;13.90;99.90;;;;;;4878752;29;20135;-77
2021/05/10 00:23:50;;;;;;;4.00;1.75;;;13.90;99.90;;;;;;4895867;29;20504;-76
2021/05/10 00:26:22;;;;;;;2.20;1.75;;;13.90;99.90;;;;;;4894725;29;20049;-76
2021/05/10 00:28:53;;;;;;;2.22;1.55;;;13.90;99.90;;;;;;4895932;29;20128;-76
2021/05/10 00:31:24;;;;;;;2.33;1.83;;;13.90;99.90;;;;;;4898044;29;20045;-75
2021/05/10 00:33:55;;;;;;;2.88;1.83;;;13.80;99.90;;;;;;4899054;29;20145;-77
2021/05/10 00:36:21;;;;;;;3.72;2.03;;;13.80;99.90;;;;;;4897881;29;20151;-77
2021/05/10 00:38:48;;;;;;;4.10;2.03;;;13.70;99.90;;;;;;4896547;29;20571;-76
2021/05/10 00:41:19;;;;;;;2.47;2.00;;;13.70;99.90;;;;;;4899143;29;20127;-76
2021/05/10 00:43:50;;;;;;;1.90;1.80;;;13.60;99.90;;;;;;4882890;29;20143;-76
2021/05/10 00:46:21;;;;;;;2.15;1.75;;;13.50;99.90;;;;;;4898132;29;20523;-76
2021/05/10 00:48:47;;;;;;;2.10;1.80;;;13.40;99.90;;;;;;4882574;29;20053;-75
2021/05/10 00:51:19;;;;;;;2.22;1.90;;;13.40;99.90;;;;;;4899066;29;20045;-76
2021/05/10 00:53:46;;;;;;;2.13;1.85;;;13.40;99.90;;;;;;4899092;29;20291;-75
2021/05/10 00:56:17;;;;;;;1.95;1.67;;;13.40;99.90;;;;;;4897718;29;20139;-76
2021/05/10 00:58:44;;;;;;;2.72;1.92;;;13.40;99.90;;;;;;4899024;29;20131;-76
2021/05/10 01:01:10;;;;;;;4.65;1.83;;;13.40;99.90;;;;;;4897013;29;20052;-76
2021/05/10 01:03:43;;;;;;;2.40;1.88;;;13.40;99.90;;;;;;4897172;29;20132;-77
2021/05/10 01:06:14;;;;;;;2.85;1.83;;;13.40;99.90;;;;;;4882350;29;20048;-76
2021/05/10 01:08:40;;;;;;;1.90;1.70;;;13.40;99.90;;;;;;4897064;29;20057;-76
2021/05/10 01:11:11;;;;;;;2.88;2.28;;;13.40;99.90;;;;;;4898104;29;20140;-78
2021/05/10 01:13:38;;;;;;;2.13;1.83;;;13.40;99.90;;;;;;4898147;29;20131;-76
2021/05/10 01:16:09;;;;;;;2.75;1.88;;;13.30;99.90;;;;;;4897248;29;20069;-76
2021/05/10 01:18:41;;;;;;;2.53;1.80;;;13.20;99.90;;;;;;4897334;29;20054;-76
2021/05/10 01:21:13;;;;;;;1.63;1.52;;;13.20;99.90;;;;;;4897251;29;20141;-76
2021/05/10 01:23:40;;;;;;;2.00;1.80;;;13.20;99.90;;;;;;4913015;29;20537;-76
2021/05/10 01:26:13;;;;;;;2.25;1.70;;;13.20;99.90;;;;;;4898588;29;20518;-76
2021/05/10 01:28:40;;;;;;;2.38;1.92;;;13.20;99.90;;;;;;4912445;29;20147;-76
2021/05/10 01:31:15;;;;;;;2.95;1.77;;;13.20;99.90;;;;;;4897747;29;20054;-76
2021/05/10 01:33:46;;;;;;;2.53;1.67;;;13.20;99.90;;;;;;4897606;29;20068;-76
2021/05/10 01:36:18;;;;;;;2.92;1.70;;;13.20;99.90;;;;;;4896784;29;20507;-76
2021/05/10 01:38:44;;;;;;;2.90;2.42;;;13.20;99.90;;;;;;4896937;29;20135;-76
2021/05/10 01:41:15;;;;;;;6.22;3.30;;;13.10;99.90;;;;;;4895828;29;20091;-76
2021/05/10 01:43:46;;;;;;;6.15;3.10;;;13.10;99.90;;;;;;4898166;29;20045;-76
2021/05/10 01:46:17;;;;;;;3.15;2.78;;;13.10;99.90;;;;;;4896746;29;20044;-78
2021/05/10 01:48:49;;;;;;;3.45;2.88;;;13.10;99.90;;;;;;4897012;29;20040;-76
2021/05/10 01:51:15;;;;;;;3.00;2.33;;;13.00;99.90;;;;;;4897991;29;20131;-76
2021/05/10 01:53:47;;;;;;;2.63;2.28;;;13.00;99.90;;;;;;4881956;29;20411;-76
2021/05/10 01:56:18;;;;;;;3.78;2.30;;;13.00;99.90;;;;;;4881978;29;20496;-76
2021/05/10 01:58:52;;;;;;;2.78;2.03;;;12.90;99.90;;;;;;4896663;29;20037;-75
2021/05/10 02:01:23;;;;;;;3.13;2.08;;;12.90;99.90;;;;;;4896487;29;20151;-77
2021/05/10 02:03:54;;;;;;;3.53;1.80;;;12.90;99.90;;;;;;4896832;29;20040;-76
2021/05/10 02:06:20;;;;;;;4.10;2.00;;;12.90;99.90;;;;;;4881211;29;20486;-76
2021/05/10 02:08:52;;;;;;;3.13;2.50;;;12.90;99.90;;;;;;4896568;29;20045;-76
2021/05/10 02:11:23;;;;;;;3.50;1.92;;;12.90;99.90;;;;;;4881219;29;20040;-76
2021/05/10 02:13:54;;;;;;;2.97;2.15;;;12.90;99.90;;;;;;4897593;29;20079;-76
2021/05/10 02:16:25;;;;;;;7.20;2.28;;;12.80;99.90;;;;;;4897727;29;20120;-76
2021/05/10 02:18:58;;;;;;;2.58;2.10;;;12.80;99.90;;;;;;4896480;29;20051;-76
2021/05/10 02:21:30;;;;;;;2.30;1.88;;;12.80;99.90;;;;;;4895673;29;20127;-76
2021/05/10 02:23:57;;;;;;;2.55;2.20;;;12.70;99.90;;;;;;4880634;29;20052;-77
2021/05/10 02:26:28;;;;;;;2.60;2.08;;;12.60;99.90;;;;;;4896391;29;20051;-78
2021/05/10 02:29:01;;;;;;;6.90;3.00;;;12.60;99.90;;;;;;4896317;29;20439;-76
2021/05/10 02:31:32;;;;;;;3.75;2.42;;;12.60;99.90;;;;;;4881324;29;20411;-77
2021/05/10 02:33:59;;;;;;;2.85;1.90;;;12.50;99.90;;;;;;4895899;29;20055;-76
2021/05/10 02:36:30;;;;;;;2.63;1.80;;;12.40;99.90;;;;;;4896166;29;20124;-76
2021/05/10 02:39:01;;;;;;;3.47;2.38;;;12.30;99.90;;;;;;4896269;29;20115;-76
2021/05/10 02:41:33;;;;;;;3.15;1.95;;;12.30;99.90;;;;;;4897036;29;20051;-76
2021/05/10 02:43:59;;;;;;;2.55;1.98;;;12.20;99.90;;;;;;4897064;29;20149;-76
2021/05/10 02:46:25;;;;;;;2.42;1.88;;;12.20;99.90;;;;;;4880398;29;20040;-76
2021/05/10 02:48:52;;;;;;;5.05;1.85;;;12.20;99.90;;;;;;4896096;29;20344;-75
2021/05/10 02:51:23;;;;;;;3.10;1.77;;;12.10;99.90;;;;;;4895385;29;20048;-76
2021/05/10 02:53:54;;;;;;;3.30;2.03;;;12.10;99.90;;;;;;4895622;29;20041;-76
2021/05/10 02:56:26;;;;;;;2.10;1.90;;;12.10;99.90;;;;;;4895952;29;20051;-76
2021/05/10 02:58:52;;;;;;;2.67;1.92;;;12.00;99.90;;;;;;4895782;29;20527;-76
2021/05/10 03:01:23;;;;;;;2.67;2.10;;;12.00;99.90;;;;;;4880369;29;20058;-76
2021/05/10 03:03:55;;;;;;;2.30;1.98;;;11.90;99.90;;;;;;4895784;29;20037;-77
2021/05/10 03:06:26;;;;;;;5.60;2.50;;;11.90;99.90;;;;;;4895785;29;20128;-76
2021/05/10 03:08:52;;;;;;;2.53;2.33;;;11.90;99.90;;;;;;4895517;29;20063;-75
2021/05/10 03:11:18;;;;;;;2.10;1.90;;;11.90;99.90;;;;;;4895364;29;20132;-76
2021/05/10 03:13:44;;;;;;;4.18;1.90;;;11.80;99.90;;;;;;4895374;29;20552;-76
2021/05/10 03:16:16;;;;;;;2.10;1.90;;;11.70;99.90;;;;;;4895413;29;20044;-76
2021/05/10 03:18:47;;;;;;;6.55;2.00;;;11.70;99.90;;;;;;4880744;29;20051;-76
2021/05/10 03:21:18;;;;;;;2.33;2.08;;;11.60;99.90;;;;;;4895377;29;20411;-76
2021/05/10 03:23:45;;;;;;;3.67;2.00;;;11.60;99.90;;;;;;4895222;29;20143;-76
2021/05/10 03:26:11;;;;;;;2.75;1.98;;;11.40;99.90;;;;;;4896396;29;20086;-76
2021/05/10 03:28:42;;;;;;;3.17;1.70;;;11.40;99.90;;;;;;4896549;29;20045;-78
2021/05/10 03:31:13;;;;;;;3.88;1.92;;;11.40;99.90;;;;;;4896007;29;20071;-75
2021/05/10 03:33:44;;;;;;;3.03;1.80;;;11.30;99.90;;;;;;4904310;29;20041;-83
2021/05/10 03:36:11;;;;;;;2.25;1.73;;;11.30;99.90;;;;;;4890463;29;20497;-83
2021/05/10 03:38:42;;;;;;;2.83;2.10;;;11.20;99.90;;;;;;4905113;29;20123;-81
2021/05/10 03:41:13;;;;;;;1.92;1.70;;;11.20;99.90;;;;;;4890072;29;20151;-81
2021/05/10 03:43:40;;;;;;;2.25;1.88;;;11.20;99.90;;;;;;4889396;29;20107;-81
2021/05/10 03:46:11;;;;;;;3.15;1.90;;;11.20;99.90;;;;;;4888541;29;20048;-81
2021/05/10 03:48:42;;;;;;;3.38;2.50;;;11.20;99.90;;;;;;4890686;29;20124;-81
2021/05/10 03:51:09;;;;;;;2.42;1.98;;;11.20;99.90;;;;;;4900110;29;20075;-80
2021/05/10 03:53:35;;;;;;;2.03;1.60;;;11.30;99.90;;;;;;4903377;29;20081;-81
2021/05/10 03:56:07;;;;;;;2.67;2.15;;;11.30;99.90;;;;;;4903369;29;20064;-84
2021/05/10 03:58:33;;;;;;;3.03;2.13;;;11.30;99.90;;;;;;4902895;29;20083;-82
2021/05/10 04:01:04;;;;;;;4.00;2.15;;;11.30;99.90;;;;;;4903643;29;20491;-82
2021/05/10 04:03:47;;;;;;;4.10;1.98;;;11.30;99.90;;;;;;4904491;29;20143;-83
2021/05/10 04:09:02;;;;;;;3.63;1.80;;;11.30;99.90;;;;;;4908287;29;20099;-82
2021/05/10 04:14:20;;;;;;;5.45;2.10;;;11.40;99.90;;;;;;4912642;29;20079;-83
2021/05/10 04:16:46;;;;;;;3.65;2.03;;;11.40;99.90;;;;;;4910644;29;20075;-81
2021/05/10 04:19:17;;;;;;;5.63;2.22;;;11.40;99.90;;;;;;4911859;29;20052;-83
2021/05/10 04:21:44;;;;;;;6.25;2.05;;;11.30;99.90;;;;;;4909399;29;20056;-82
2021/05/10 04:24:10;;;;;;;9.23;2.83;;;11.30;99.90;;;;;;4910219;29;20056;-82
2021/05/10 04:26:36;;;;;;;5.05;2.45;;;11.30;99.90;;;;;;4903235;29;20083;-79
2021/05/10 04:29:08;;;;;;;2.47;1.80;;;11.30;99.90;;;;;;4883254;29;20408;-80
2021/05/10 04:31:39;;;;;;;4.95;1.77;;;11.30;99.90;;;;;;4883107;29;20041;-78
2021/05/10 04:34:10;;;;;;;4.15;2.33;;;11.20;99.90;;;;;;4883598;29;20052;-79
2021/05/10 04:36:37;;;;;;;7.57;2.83;;;11.10;99.90;;;;;;4898514;29;20044;-79
2021/05/10 04:39:03;;;;;;;3.15;1.60;;;11.10;99.90;;;;;;4898732;29;20124;-79
2021/05/10 04:41:34;;;;;;;3.53;1.95;;;11.10;99.90;;;;;;4882905;29;20044;-78
2021/05/10 04:44:01;;;;;;;6.35;2.00;;;11.20;99.90;;;;;;4898134;29;20083;-79
2021/05/10 04:46:27;;;;;;;6.82;2.15;;;11.20;99.90;;;;;;4882736;29;20140;-81
2021/05/10 04:48:58;;;;;;;3.97;2.05;;;11.30;99.90;;;;;;4883341;29;20075;-79
2021/05/10 04:51:25;;;;;;;3.20;2.53;;;11.30;99.90;;;;;;4899035;29;20171;-79
2021/05/10 04:53:51;;;;;;;5.15;2.60;;;11.40;99.90;;;;;;4899055;29;20045;-79
2021/05/10 04:56:17;;;;;;;5.40;2.80;;;11.40;99.90;;;;;;4898326;29;20131;-79
2021/05/10 04:58:43;;;;;;;7.32;3.70;;;11.50;99.90;;;;;;4882644;29;20076;-79
2021/05/10 05:01:15;;;;;;;4.07;2.67;;;11.50;99.90;;;;;;4898298;29;20140;-79
2021/05/10 05:03:46;;;;;;;4.03;2.70;;;11.50;99.90;;;;;;4899151;29;20048;-79
2021/05/10 05:06:12;;;;;;;11.45;7.35;;;11.60;99.90;;;;;;4898194;29;20087;-80
2021/05/10 05:08:43;;;;;;;9.32;8.40;;;11.70;99.90;;;;;;4899281;29;20051;-78
2021/05/10 05:11:10;;;;;;;10.80;7.47;;;11.80;99.90;;;;;;4909984;29;20503;-79
2021/05/10 05:13:41;;;;;;;9.30;8.30;;;11.80;99.90;;;;;;4901037;29;20143;-80
2021/05/10 05:16:07;;;;;;;7.95;6.82;;;11.80;99.90;;;;;;4916628;29;20123;-79
2021/05/10 05:18:33;;;;;;;15.23;7.13;;;11.80;99.90;;;;;;4917862;29;20047;-79
2021/05/10 05:21:05;;;;;;;8.48;6.00;;;11.90;99.90;;;;;;4901153;29;20040;-78
2021/05/10 05:23:31;;;;;;;8.55;6.55;;;12.00;99.90;;;;;;4917435;29;20334;-78
2021/05/10 05:26:04;;;;;;;8.10;6.90;;;12.10;99.90;;;;;;4916475;29;20076;-73
2021/05/10 05:28:35;;;;;;;10.50;7.73;;;12.10;99.90;;;;;;4915966;29;20052;-74
2021/05/10 05:31:02;;;;;;;10.27;7.60;;;12.20;99.90;;;;;;4899990;29;20404;-74
2021/05/10 05:33:29;;;;;;;11.20;7.18;;;12.20;99.90;;;;;;4895711;29;20080;-74
2021/05/10 05:35:55;;;;;;;12.50;8.88;;;12.30;99.90;;;;;;4896685;29;20603;-74
2021/05/10 05:38:30;;;;;;;7.75;6.70;;;12.30;99.90;;;;;;4896967;29;20135;-75
2021/05/10 05:41:01;;;;;;;7.50;6.22;;;12.40;99.90;;;;;;4881872;29;20068;-74
2021/05/10 05:43:33;;;;;;;7.57;5.97;;;12.40;99.90;;;;;;4896609;29;20045;-74
2021/05/10 05:45:59;;;;;;;6.05;5.15;;;12.60;99.90;;;;;;4896734;29;20080;-76
2021/05/10 05:48:30;;;;;;;7.68;4.90;;;12.70;99.90;;;;;;4881434;29;20055;-74
2021/05/10 05:50:56;;;;;;;5.30;4.38;;;12.80;99.90;;;;;;4897552;29;20072;-74
2021/05/10 05:53:22;;;;;;;7.57;5.35;;;12.90;99.90;;;;;;4901390;29;20139;-74
2021/05/10 05:55:54;;;;;;;7.15;4.63;;;13.10;99.90;;;;;;4915333;29;20048;-74
2021/05/10 05:58:25;;;;;;;7.95;6.10;;;13.20;99.90;;;;;;4900287;29;20055;-74
2021/05/10 06:00:57;;;;;;;6.47;5.88;;;13.40;99.90;;;;;;4915475;29;20568;-74
2021/05/10 06:03:28;;;;;;;7.18;4.70;;;13.50;99.90;;;;;;4900148;29;20066;-74
2021/05/10 06:05:55;;;;;;;5.75;5.22;;;13.60;99.90;;;;;;4915509;29;20048;-75
2021/05/10 06:08:21;;;;;;;7.03;5.13;;;13.70;99.90;;;;;;4899125;29;20123;-74
2021/05/10 06:10:49;;;;;;;7.30;5.47;;;13.70;99.90;;;;;;4914091;29;20087;-74
2021/05/10 06:13:20;;;;;;;5.82;5.30;;;13.80;99.90;;;;;;4899867;29;20052;-74
2021/05/10 06:15:47;;;;;;;5.85;5.22;;;13.90;99.90;;;;;;4899474;29;20052;-76
2021/05/10 06:18:18;;;;;;;8.75;5.47;;;14.00;99.90;;;;;;4900108;29;20493;-74
2021/05/10 06:20:45;;;;;;;5.72;5.13;;;14.20;99.90;;;;;;4898069;29;20155;-74
2021/05/10 06:23:16;;;;;;;5.57;4.95;;;14.30;99.90;;;;;;4900331;29;20068;-74
2021/05/10 06:25:47;;;;;;;9.13;6.18;;;14.40;99.90;;;;;;4927686;29;20047;-75
2021/05/10 06:28:19;;;;;;;14.82;6.00;;;14.50;99.90;;;;;;4934309;29;20138;-74
2021/05/10 06:30:50;;;;;;;24.00;7.10;;;14.50;99.90;;;;;;4918557;29;20547;-74
2021/05/10 06:33:21;;;;;;;11.57;5.72;;;14.50;99.90;;;;;;4933974;29;20071;-74
2021/05/10 06:35:52;;;;;;;10.02;5.88;;;14.50;99.90;;;;;;4934177;29;20042;-74
2021/05/10 06:38:24;;;;;;;5.47;4.97;;;14.50;99.90;;;;;;4935171;29;20119;-74
2021/05/10 06:40:55;;;;;;;23.42;7.03;;;14.60;99.90;;;;;;4933433;29;20573;-75
2021/05/10 06:43:21;;;;;;;11.45;6.57;;;14.60;99.90;;;;;;4933802;29;20079;-74
2021/05/10 06:45:52;;;;;;;8.43;6.63;;;14.60;99.90;;;;;;4933897;29;20431;-76
2021/05/10 06:48:32;;;;;;;5.50;5.00;;;14.50;99.90;;;;;;4934762;29;20503;-74
2021/05/10 06:50:59;;;;;;;6.53;5.78;;;14.50;99.90;;;;;;4933691;29;20047;-74
2021/05/10 06:53:25;;;;;;;5.10;4.70;;;14.60;99.90;;;;;;4917934;29;20083;-74
2021/05/10 06:55:57;;;;;;;7.10;5.07;;;14.60;99.90;;;;;;4933577;29;20418;-73
2021/05/10 06:58:23;;;;;;;6.15;5.07;;;14.60;99.90;;;;;;4917818;29;20483;-74
2021/05/10 07:00:54;;;;;;;5.68;5.15;;;14.60;99.90;;;;;;4917146;29;20043;-75
2021/05/10 07:03:26;;;;;;;5.22;4.72;;;14.60;99.90;;;;;;4934999;29;20048;-74
2021/05/10 07:05:57;;;;;;;6.75;5.47;;;14.70;99.90;;;;;;4933839;29;20469;-74
2021/05/10 07:08:28;;;;;;;6.25;5.45;;;14.80;99.90;;;;;;4932613;29;20146;-77
2021/05/10 07:10:59;;;;;;;8.25;6.00;;;14.90;99.90;;;;;;4917582;29;20062;-77
2021/05/10 07:13:26;;;;;;;7.28;5.82;;;15.10;99.90;;;;;;4933759;29;20123;-77
2021/05/10 07:15:52;;;;;;;6.65;5.35;;;15.20;99.90;;;;;;4917178;29;20040;-77
2021/05/10 07:18:19;;;;;;;7.00;5.35;;;15.30;99.90;;;;;;4916855;29;20118;-79
2021/05/10 07:20:46;;;;;;;5.63;5.13;;;15.50;99.90;;;;;;4933475;29;20483;-77
2021/05/10 07:23:18;;;;;;;8.45;6.15;;;15.70;99.90;;;;;;4933748;29;20119;-77
2021/05/10 07:25:47;;;;;;;7.22;6.15;;;15.80;99.90;;;;;;4932722;29;20410;-77
2021/05/10 07:28:19;;;;;;;5.57;4.80;;;16.00;99.90;;;;;;4932866;29;20047;-77
2021/05/10 07:30:47;;;;;;;7.03;5.45;;;16.20;99.90;;;;;;4932264;29;20087;-76
2021/05/10 07:33:13;;;;;;;6.28;5.18;;;16.40;99.90;;;;;;4903439;29;20053;-77
2021/05/10 07:35:40;;;;;;;9.98;7.45;;;16.60;99.90;;;;;;4895234;29;20083;-77
2021/05/10 07:38:11;;;;;;;10.00;8.05;;;16.80;99.90;;;;;;4893928;29;20048;-77
2021/05/10 07:40:38;;;;;;;7.10;5.88;;;17.00;99.90;;;;;;4878634;29;20048;-77
2021/05/10 07:43:09;;;;;;;8.05;5.93;;;17.30;99.90;;;;;;4879617;29;20044;-77
2021/05/10 07:45:36;;;;;;;7.78;4.90;;;17.60;99.90;;;;;;4879245;29;20146;-77
2021/05/10 07:48:03;;;;;;;10.68;5.53;;;17.80;99.90;;;;;;4881538;29;20060;-78
2021/05/10 07:50:34;;;;;;;8.05;6.13;;;18.10;99.90;;;;;;4932168;29;20067;-77
2021/05/10 07:53:05;;;;;;;6.50;5.20;;;18.30;99.90;;;;;;4916968;29;20410;-77
2021/05/10 07:55:33;;;;;;;5.97;5.38;;;18.50;99.90;;;;;;4916564;29;20150;-77
2021/05/10 07:58:05;;;;;;;5.20;4.65;;;18.70;99.90;;;;;;4932178;29;20159;-79
2021/05/10 08:00:39;;;;;;;9.27;4.85;;;18.90;99.90;;;;;;4917047;29;20487;-77
2021/05/10 08:03:07;;;;;;;5.53;4.30;;;19.00;99.90;;;;;;4932164;29;20118;-77
2021/05/10 08:05:40;;;;;;;4.50;4.00;;;19.20;99.90;;;;;;4911345;29;20228;-77
2021/05/10 08:08:07;;;;;;;3.83;3.13;;;19.30;99.90;;;;;;4895796;29;20583;-77
2021/05/10 08:10:38;;;;;;;7.68;3.85;;;19.40;99.90;;;;;;4894058;29;20423;-77
2021/05/10 08:13:05;;;;;;;4.05;3.00;;;19.50;99.90;;;;;;4894563;29;20561;-77
2021/05/10 08:15:31;;;;;;;5.65;3.70;;;19.60;99.90;;;;;;4893999;29;20052;-77
2021/05/10 08:18:03;;;;;;;4.25;3.17;;;19.60;99.90;;;;;;4894690;29;20044;-77
2021/05/10 08:20:34;;;;;;;5.82;3.30;;;19.60;99.90;;;;;;4895387;29;20047;-77
2021/05/10 08:23:00;;;;;;;4.03;3.30;;;19.60;99.90;;;;;;4878937;29;20143;-79
2021/05/10 08:25:32;;;;;;;4.53;3.50;;;19.60;99.90;;;;;;4879871;29;20048;-77
2021/05/10 08:27:58;;;;;;;3.83;3.30;;;19.70;99.90;;;;;;4878637;29;20571;-77
2021/05/10 08:30:25;;;;;;;5.68;3.47;;;19.90;99.90;;;;;;4894134;29;20147;-77
2021/05/10 08:32:58;;;;;;;6.25;3.25;;;20.00;99.90;;;;;;4895545;29;20059;-77
2021/05/10 08:35:25;;;;;;;9.20;2.80;;;20.20;99.90;;;;;;4894415;29;20460;-77
2021/05/10 08:37:56;;;;;;;3.72;2.80;;;20.30;99.90;;;;;;4894297;29;20528;-77
2021/05/10 08:40:28;;;;;;;2.75;2.45;;;20.50;99.90;;;;;;4878766;29;20482;-77
2021/05/10 08:43:00;;;;;;;3.33;2.78;;;20.60;99.90;;;;;;4895477;29;20045;-77
2021/05/10 08:45:28;;;;;;;4.88;2.60;;;20.70;99.90;;;;;;4878686;29;20052;-77
2021/05/10 08:47:59;;;;;;;2.95;2.47;;;20.80;99.90;;;;;;4894275;29;20468;-78
2021/05/10 08:50:30;;;;;;;4.93;2.55;;;20.90;99.90;;;;;;4895814;29;20053;-77
2021/05/10 08:52:56;;;;;;;2.95;2.65;;;21.00;99.90;;;;;;4897370;29;20044;-79
2021/05/10 08:55:27;;;;;;;3.30;3.00;;;21.10;99.90;;;;;;4897732;29;20045;-76
2021/05/10 08:57:53;;;;;;;4.32;2.50;;;21.10;99.90;;;;;;4897672;29;20045;-76
2021/05/10 09:00:22;;;;;;;2.42;2.00;;;21.30;99.90;;;;;;4897513;29;20115;-77
2021/05/10 09:03:04;;;;;;;4.25;2.08;;;21.30;99.90;;;;;;4897362;29;20078;-76
2021/05/10 09:05:51;;;;;;;3.10;1.75;;;21.40;99.90;;;;;;4897593;29;20493;-76
2021/05/10 09:08:23;;;;;;;5.85;2.45;;;21.50;99.40;;;;;;4897396;29;20074;-76
2021/05/10 09:11:06;;;;;;;4.70;2.45;;;21.60;97.30;;;;;;4897093;29;20079;-77
2021/05/10 09:13:36;;;;;;;5.47;2.70;;;21.70;97.10;;;;;;4897409;29;20155;-77
2021/05/10 09:16:03;;;;;;;3.55;2.45;;;21.80;98.20;;;;;;4897097;29;20084;-77
2021/05/10 09:18:34;;;;;;;4.57;2.42;;;22.10;97.70;;;;;;4897380;29;20055;-77
2021/05/10 09:21:24;;;;;;;3.10;2.20;;;22.10;95.50;;;;;;4896752;29;20143;-77
2021/05/10 09:23:58;;;;;;;2.72;1.90;;;22.30;93.00;;;;;;4897220;29;20053;-77
2021/05/10 09:26:34;;;;;;;6.10;2.78;;;22.40;91.50;;;;;;4896901;29;20426;-77
2021/05/10 09:29:01;;;;;;;2.63;1.90;;;22.50;93.00;;;;;;4897179;29;20168;-77
2021/05/10 09:31:29;;;;;;;2.83;1.80;;;22.70;92.20;;;;;;4896515;29;20586;-77
2021/05/10 09:34:02;;;;;;;3.67;2.30;;;22.80;91.40;;;;;;4897035;29;20128;-77
2021/05/10 09:36:36;;;;;;;6.53;1.70;;;22.90;91.50;;;;;;4896988;29;20131;-77
2021/05/10 09:39:22;;;;;;;7.25;2.38;;;23.00;87.40;;;;;;4897927;29;20096;-77
2021/05/10 09:42:02;;;;;;;4.80;2.13;;;23.20;84.10;;;;;;4907612;29;20036;-77
2021/05/10 09:44:43;;;;;;;2.15;1.50;;;23.40;86.60;;;;;;4916898;29;20036;-78
2021/05/10 09:47:32;;;;;;;3.95;1.65;;;23.60;75.90;;;;;;4900791;29;20115;-77
2021/05/10 09:50:04;;;;;;;5.47;2.00;;;23.80;71.20;;;;;;4900387;29;20483;-78
2021/05/10 09:52:35;;;;;;;6.03;1.55;;;24.00;67.60;;;;;;4916729;29;20037;-77
2021/05/10 09:55:07;;;;;;;1.95;1.30;;;24.10;68.40;;;;;;4915530;29;20051;-77
2021/05/10 09:57:54;;;;;;;8.18;1.90;;;24.30;66.10;;;;;;4900143;29;20410;-77
2021/05/10 10:00:21;;;;;;;3.78;1.23;;;24.50;62.80;;;;;;4919268;29;20039;-77
2021/05/10 10:02:48;;;;;;;2.22;1.63;;;24.70;62.90;;;;;;4917262;29;20522;-77
2021/05/10 10:05:19;;;;;;;2.05;1.80;;;24.80;64.90;;;;;;4921623;29;20358;-78
2021/05/10 10:07:46;;;;;;;6.50;1.80;;;24.90;66.40;;;;;;4914990;29;20609;-77
2021/05/10 10:10:17;;;;;;;3.60;1.20;;;24.90;65.60;;;;;;4914855;29;20331;-78
2021/05/10 10:12:43;;;;;;;1.67;0.93;;;24.80;58.00;;;;;;4916106;29;20127;-77
2021/05/10 10:15:15;;;;;;;2.63;1.45;;;24.90;57.50;;;;;;4916034;29;20035;-77
2021/05/10 10:17:46;;;;;;;2.38;1.67;;;25.00;55.50;;;;;;4916550;29;20040;-77
2021/05/10 10:20:13;;;;;;;2.45;1.10;;;25.20;55.00;;;;;;4898977;29;20075;-77
2021/05/10 10:22:45;;;;;;;2.63;1.67;;;25.30;52.90;;;;;;4914786;29;20127;-77
2021/05/10 10:25:18;;;;;;;2.33;1.10;;;25.30;55.90;;;;;;4899637;29;20514;-77
2021/05/10 10:27:54;;;;;;;2.88;1.40;;;25.30;54.90;;;;;;4916260;29;20079;-77
2021/05/10 10:30:26;;;;;;;7.30;1.20;;;25.40;53.80;;;;;;4914531;29;20411;-77
2021/05/10 10:33:01;;;;;;;3.28;1.40;;;25.50;54.40;;;;;;4899489;29;20147;-77
2021/05/10 10:35:29;;;;;;;1.55;1.00;;;25.60;56.10;;;;;;4915855;29;20492;-77
2021/05/10 10:38:02;;;;;;;1.50;1.25;;;25.70;53.90;;;;;;4899622;29;20051;-78
2021/05/10 10:40:33;;;;;;;4.90;1.40;;;25.90;52.00;;;;;;4914625;29;20062;-77
2021/05/10 10:43:27;;;;;;;3.53;1.00;;;26.10;52.70;;;;;;4914325;29;20050;-77
2021/05/10 10:46:25;;;;;;;3.90;1.40;;;26.20;54.60;;;;;;4914632;29;20124;-77
2021/05/10 10:49:18;;;;;;;3.55;1.60;;;26.30;49.70;;;;;;4914748;29;20147;-77
2021/05/10 10:51:53;;;;;;;2.77;1.20;;;26.20;47.20;;;;;;4913900;29;20052;-78
2021/05/10 10:54:26;;;;;;;2.33;1.20;;;26.30;51.20;;;;;;4914099;29;20052;-76
2021/05/10 10:57:02;;;;;;;5.75;1.42;;;26.30;50.10;;;;;;4914605;29;20095;-76
2021/05/10 10:59:31;;;;;;;2.70;1.17;;;26.40;48.70;;;;;;4904280;29;20055;-77
2021/05/10 11:02:13;;;;;;;2.30;1.10;;;26.40;48.30;;;;;;4895305;29;20101;-78
2021/05/10 11:04:39;;;;;;;1.60;1.02;;;26.40;50.40;;;;;;4895142;29;20162;-77
2021/05/10 11:07:11;;;;;;;1.65;0.90;;;26.50;49.40;;;;;;4880860;29;20051;-77
2021/05/10 11:09:53;;;;;;;2.90;1.30;;;26.50;47.70;;;;;;4911843;29;20045;-77
2021/05/10 11:12:50;;;;;;;4.75;1.50;;;26.50;48.00;;;;;;4914151;29;20058;-79
2021/05/10 11:15:38;;;;;;;5.38;1.40;;;26.50;48.10;;;;;;4915447;29;20036;-77
2021/05/10 11:18:08;;;;;;;2.88;1.00;;;26.50;49.10;;;;;;4903351;29;20074;-78
2021/05/10 11:20:42;;;;;;;3.67;1.17;;;26.60;48.80;;;;;;4933105;29;20046;-77
2021/05/10 11:23:28;;;;;;;2.22;1.17;;;26.60;49.00;;;;;;4918032;29;20048;-77
2021/05/10 11:26:35;;;;;;;5.18;1.55;;;26.60;48.80;;;;;;4913236;29;20048;-78
2021/05/10 11:29:09;;;;;;;4.97;1.30;;;26.60;48.60;;;;;;4913858;29;20044;-77
2021/05/10 11:31:42;;;;;;;3.00;1.10;;;26.50;46.80;;;;;;4914538;29;20051;-77
2021/05/10 11:34:10;;;;;;;2.28;1.20;;;26.40;46.70;;;;;;4897745;29;20048;-77
2021/05/10 11:36:48;;;;;;;2.17;1.20;;;26.40;49.20;;;;;;4913282;29;20254;-77
2021/05/10 11:39:28;;;;;;;4.82;1.27;;;26.40;47.60;;;;;;4912872;29;20072;-77
2021/05/10 11:42:09;;;;;;;2.63;1.23;;;26.40;46.50;;;;;;4912981;29;20084;-75
2021/05/10 11:44:43;;;;;;;3.92;1.30;;;26.40;47.60;;;;;;4899013;29;20048;-76
2021/05/10 11:47:14;;;;;;;3.55;1.40;;;26.40;45.80;;;;;;4915472;29;20127;-74
2021/05/10 11:49:47;;;;;;;4.50;1.27;;;26.30;47.80;;;;;;4915085;29;20052;-76
2021/05/10 11:52:19;;;;;;;;;;;26.30;46.40;;;;;;4899112;29;20048;-74
2021/05/10 11:54:54;;;;;;;2.10;1.05;;;26.30;46.10;;;;;;4898638;29;20313;-74
2021/05/10 11:57:31;;;;;;;2.60;1.00;;;26.30;45.40;;;;;;4913943;29;20135;-74
2021/05/10 12:00:13;;;;;;;2.88;1.42;;;26.50;45.80;;;;;;4898758;29;20044;-75
2021/05/10 12:02:48;;;;;;;3.60;1.17;;;26.50;45.30;;;;;;4913817;29;20500;-75
2021/05/10 12:05:15;;;;;;;6.68;1.65;;;26.60;44.00;;;;;;4898330;29;20503;-74
2021/05/10 12:07:49;;;;;;;2.97;1.08;;;26.60;45.00;;;;;;4914147;29;20058;-74
2021/05/10 12:10:20;;;;;;;1.50;1.00;;;26.70;45.30;;;;;;4898804;29;20059;-75
2021/05/10 12:12:48;;;;;;;1.88;1.30;;;26.80;44.50;;;;;;4914109;29;20415;-75
2021/05/10 12:15:17;;;;;;;1.95;1.17;;;26.90;46.30;;;;;;4913955;29;20075;-76
2021/05/10 12:17:51;;;;;;;1.75;1.05;;;27.00;43.20;;;;;;4912816;29;20115;-75
2021/05/10 12:20:24;;;;;;;3.50;1.45;;;27.10;42.60;;;;;;4877702;29;20624;-74
2021/05/10 12:23:04;;;;;;;3.85;0.98;;;27.10;42.80;;;;;;4913272;29;20134;-74
2021/05/10 12:25:38;;;;;;;4.63;1.00;;;27.10;44.80;;;;;;4899927;29;20059;-75
2021/05/10 12:28:17;;;;;;;3.83;1.20;;;27.10;42.70;;;;;;4916958;29;20135;-74
2021/05/10 12:33:18;;;;;;;4.13;1.15;;;27.20;43.00;;;;;;4916525;29;20579;-74
2021/05/10 12:35:53;;;;;;;1.77;1.00;;;27.30;43.10;;;;;;4900723;29;20138;-74
2021/05/10 12:38:28;;;;;;;2.90;1.08;;;27.30;43.80;;;;;;4916957;29;20134;-74
2021/05/10 12:41:01;;;;;;;7.03;1.17;;;27.10;45.40;;;;;;4916599;29;20121;-74
2021/05/10 12:43:46;;;;;;;5.45;1.75;;;27.10;45.20;;;;;;4916342;29;20126;-75
2021/05/10 12:46:18;;;;;;;2.72;1.25;;;27.00;45.80;;;;;;4917525;29;20066;-74
2021/05/10 12:48:50;;;;;;;7.80;1.35;;;27.00;43.50;;;;;;4916111;29;20062;-74
2021/05/10 12:51:25;;;;;;;5.07;1.20;;;26.90;44.80;;;;;;4901262;29;20516;-74
2021/05/10 12:54:01;;;;;;;2.97;1.08;;;26.90;43.00;;;;;;4917634;29;20382;-74
2021/05/10 12:56:44;;;;;;;2.13;0.98;;;26.90;44.10;;;;;;4916778;29;20040;-74
2021/05/10 12:59:16;;;;;;;5.03;1.15;;;26.80;44.90;;;;;;4901429;29;20507;-74
2021/05/10 13:01:42;;;;;;;6.93;1.75;;;26.70;44.60;;;;;;4906301;29;20131;-74
2021/05/10 13:04:13;;;;;;;2.70;1.33;;;26.60;44.10;;;;;;4903679;29;20045;-75
2021/05/10 13:06:52;;;;;;;5.85;1.42;;;26.50;44.60;;;;;;4893418;29;20135;-74
2021/05/10 13:09:27;;;;;;;5.40;1.45;;;26.30;46.00;;;;;;4903326;29;20139;-74
2021/05/10 13:12:05;;;;;;;4.18;1.08;;;26.20;46.10;;;;;;4901949;29;20087;-75
2021/05/10 13:14:45;;;;;;;4.05;2.05;;;26.20;46.50;;;;;;4890248;29;20459;-73